Ayden, North Carolina
Current Conditions -  °F | °C
As of 5:50 AM on Saturday 25 Oct 2014 (Local Time) from KPGV Reporting Station
Light Snow Light Snow  
Wind Chill: 41°   Ceiling: 500
Heat Index: 41°   Visibility: 0.5mi
Dew Point: 41°   Wind: 0mph
Humidity: 100%   Direction: NA
Pressure: 29.99"   Gusts: NA
Location:  35.47°N, 77.42°W
Report Text: KPGV 250950Z AUTO 00000KT 1/2SM -SN VV005 05/05 A2999 RMK AO2
Loading
Personal Weather Stations






























Interactive Weather Map
Tropical Storm Tracking
New forecast layout! Learn more

10-Day Weather Forecast

Advertisements
Track Severe Weather on mobile